Time;durP1;ratioP1;P1;durP2;ratioP2;P2;SDS_P1;SDS_P2;PMS_P1;PMS_P2;Temp;Humidity;BMP_temperature;BMP_pressure;BME280_temperature;BME280_humidity;BME280_pressure;Samples;Min_cycle;Max_cycle;Signal;HPM_P1;HPM_P2
2023/04/30 00:03:32;;;;;;;16.70;12.32;;;;;;;11.23;62.88;100431.97;10491133;28;20046;-63
2023/04/30 00:08:34;;;;;;;16.10;12.27;;;;;;;11.16;62.96;100427.16;10521262;28;20048;-63
2023/04/30 00:13:36;;;;;;;14.25;11.35;;;;;;;11.12;63.11;100428.25;10521571;28;20055;-63
2023/04/30 00:18:38;;;;;;;14.25;11.52;;;;;;;11.04;63.42;100428.66;10520882;28;20066;-63
2023/04/30 00:23:40;;;;;;;14.50;12.00;;;;;;;10.99;63.52;100425.41;10520244;28;20048;-63
2023/04/30 00:28:41;;;;;;;19.67;12.75;;;;;;;10.96;63.89;100429.97;10520967;28;20044;-63
2023/04/30 00:33:43;;;;;;;17.25;11.05;;;;;;;11.04;63.57;100422.56;10502080;28;20130;-63
2023/04/30 00:38:45;;;;;;;17.52;11.98;;;;;;;11.05;63.54;100430.34;10501682;28;20103;-63
2023/04/30 00:43:47;;;;;;;18.30;13.52;;;;;;;11.06;63.48;100436.44;10519962;28;20075;-63
2023/04/30 00:48:49;;;;;;;17.67;13.05;;;;;;;11.01;63.48;100431.41;10501453;28;20519;-63
2023/04/30 00:53:51;;;;;;;18.23;11.95;;;;;;;11.02;63.50;100434.88;10501393;28;21000;-63
2023/04/30 00:58:56;;;;;;;18.25;12.50;;;;;;;10.97;63.51;100427.25;10519192;28;20052;-63
2023/04/30 01:03:58;;;;;;;17.35;13.40;;;;;;;10.95;63.52;100438.75;10500743;28;20703;-63
2023/04/30 01:09:00;;;;;;;17.58;12.15;;;;;;;10.94;63.74;100442.28;10518625;28;20132;-62
2023/04/30 01:14:50;;;;;;;19.75;12.45;;;;;;;10.83;63.83;100444.59;10500851;28;20048;-62
2023/04/30 01:19:52;;;;;;;20.13;12.65;;;;;;;10.79;63.73;100443.94;10511182;28;20066;-63
2023/04/30 01:25:03;;;;;;;17.77;13.65;;;;;;;10.73;63.70;100446.00;10518564;28;20585;-63
2023/04/30 01:30:06;;;;;;;17.15;13.70;;;;;;;10.61;64.17;100439.66;10518525;28;20047;-62
2023/04/30 01:35:08;;;;;;;16.33;12.45;;;;;;;10.54;64.09;100434.84;10498880;28;20086;-62
2023/04/30 01:40:13;;;;;;;17.77;12.73;;;;;;;10.42;64.37;100438.91;10499840;28;20484;-62
2023/04/30 01:45:18;;;;;;;18.88;12.05;;;;;;;10.33;64.59;100429.78;10517983;28;20047;-62
2023/04/30 01:50:48;;;;;;;17.25;12.18;;;;;;;10.13;64.71;100436.94;10499086;28;20048;-62
2023/04/30 01:56:26;;;;;;;22.05;15.07;;;;;;;9.90;64.94;100434.59;10514908;28;20573;-62
2023/04/30 02:01:30;;;;;;;21.23;14.13;;;;;;;9.84;64.91;100440.97;10498969;28;20143;-62
2023/04/30 02:06:33;;;;;;;24.17;13.75;;;;;;;9.74;65.13;100457.16;10517145;28;20063;-62
2023/04/30 02:11:35;;;;;;;20.48;14.50;;;;;;;9.64;65.33;100454.97;10517204;28;20054;-62
2023/04/30 02:16:37;;;;;;;18.23;13.95;;;;;;;9.52;65.59;100460.75;10532787;28;20047;-63
2023/04/30 02:21:39;;;;;;;18.27;12.98;;;;;;;9.45;65.58;100461.97;10482009;28;20488;-62
2023/04/30 02:26:40;;;;;;;19.15;12.90;;;;;;;9.39;65.45;100472.69;10516750;28;20043;-62
2023/04/30 02:31:42;;;;;;;22.85;15.30;;;;;;;9.32;65.63;100476.50;10498540;28;20044;-62
2023/04/30 02:36:45;;;;;;;15.98;12.02;;;;;;;9.29;65.54;100471.44;10498513;28;20052;-63
2023/04/30 02:41:47;;;;;;;19.55;14.82;;;;;;;9.19;65.67;100471.91;10516512;28;20097;-62
2023/04/30 02:46:48;;;;;;;42.83;20.90;;;;;;;8.96;65.71;100470.34;10505682;28;20492;-62
2023/04/30 02:51:52;;;;;;;17.45;13.48;;;;;;;8.97;65.87;100476.41;10506019;28;20052;-63
2023/04/30 02:56:54;;;;;;;26.23;15.82;;;;;;;9.08;65.60;100459.34;10505738;28;20040;-62
2023/04/30 03:01:56;;;;;;;109.93;21.98;;;;;;;9.08;65.72;100463.72;10505840;28;20500;-62
2023/04/30 03:06:59;;;;;;;23.67;17.13;;;;;;;9.02;65.89;100479.63;10488991;28;20492;-63
2023/04/30 03:12:01;;;;;;;20.25;14.40;;;;;;;8.96;65.68;100478.16;10524102;28;20044;-63
2023/04/30 03:17:03;;;;;;;52.85;18.77;;;;;;;8.97;65.99;100477.25;10523490;28;20411;-63
2023/04/30 03:22:05;;;;;;;55.17;21.08;;;;;;;8.85;66.13;100475.19;10488490;28;20496;-62
2023/04/30 03:27:07;;;;;;;37.00;18.80;;;;;;;8.74;66.03;100477.41;10505209;28;20052;-62
2023/04/30 03:32:09;;;;;;;31.33;18.75;;;;;;;8.65;65.88;100475.19;10521490;28;20040;-63
2023/04/30 03:37:11;;;;;;;27.88;19.30;;;;;;;8.50;66.12;100475.88;10504156;28;20048;-62
2023/04/30 03:42:12;;;;;;;27.73;16.30;;;;;;;8.39;66.37;100478.06;10522287;28;20456;-63
2023/04/30 03:47:14;;;;;;;29.70;18.83;;;;;;;8.21;65.97;100484.03;10522844;28;20077;-62
2023/04/30 03:52:17;;;;;;;606.08;43.38;;;;;;;7.98;65.75;100478.00;10503766;28;20530;-62
2023/04/30 03:57:19;;;;;;;242.32;31.58;;;;;;;7.62;66.64;100470.78;10520467;28;20078;-63
2023/04/30 04:02:21;;;;;;;192.60;23.92;;;;;;;7.64;67.03;100476.78;10486748;28;20048;-62
2023/04/30 04:07:23;;;;;;;114.97;23.63;;;;;;;7.79;67.00;100479.63;10503136;28;20047;-63
2023/04/30 04:12:25;;;;;;;415.25;30.27;;;;;;;7.62;66.72;100483.81;10521570;28;20163;-62
2023/04/30 04:17:27;;;;;;;401.98;27.48;;;;;;;7.38;66.84;100485.59;10502914;28;20082;-62
2023/04/30 04:22:29;;;;;;;15.48;13.18;;;;;;;7.36;66.91;100483.97;10520743;28;20063;-63
2023/04/30 04:27:31;;;;;;;221.15;22.92;;;;;;;7.53;66.85;100484.19;10485732;28;20127;-62
2023/04/30 04:32:40;;;;;;;437.95;33.50;;;;;;;7.60;66.67;100499.50;10520493;28;20058;-62
2023/04/30 04:37:43;;;;;;;733.72;46.70;;;;;;;7.43;66.16;100498.41;10502123;28;20205;-63
2023/04/30 04:42:48;;;;;;;680.22;49.83;;;;;;;7.55;66.48;100498.81;10501887;28;20051;-63
2023/04/30 04:47:50;;;;;;;213.40;24.20;;;;;;;8.03;66.05;100503.84;10520261;28;20411;-63
2023/04/30 04:52:55;;;;;;;128.95;20.27;;;;;;;8.58;64.93;100508.53;10501543;28;20058;-63
2023/04/30 04:57:57;;;;;;;190.05;22.33;;;;;;;8.94;63.91;100508.69;10500874;28;20102;-63
2023/04/30 05:02:59;;;;;;;25.38;14.07;;;;;;;9.46;62.71;100513.25;10519347;28;20382;-63
2023/04/30 05:08:01;;;;;;;16.15;13.32;;;;;;;10.16;61.06;100508.19;10500767;28;20534;-63
2023/04/30 05:13:04;;;;;;;17.27;14.15;;;;;;;10.12;60.49;100516.25;10500838;28;20040;-63
2023/04/30 05:18:06;;;;;;;18.58;14.18;;;;;;;9.78;61.06;100514.41;10518360;28;20105;-64
2023/04/30 05:23:08;;;;;;;13.98;10.98;;;;;;;9.55;61.85;100512.84;10518394;28;20036;-63
2023/04/30 05:28:11;;;;;;;15.32;12.48;;;;;;;9.47;62.21;100506.28;10518569;28;20101;-64
2023/04/30 05:33:13;;;;;;;15.15;13.20;;;;;;;9.56;62.33;100513.69;10533795;28;20043;-63
2023/04/30 05:38:14;;;;;;;18.45;13.80;;;;;;;9.47;62.88;100520.19;10517753;28;20134;-63
2023/04/30 05:43:16;;;;;;;22.90;16.20;;;;;;;9.49;63.06;100522.72;10517732;28;20063;-63
2023/04/30 05:48:18;;;;;;;25.58;17.73;;;;;;;9.50;63.49;100527.03;10517847;28;20054;-63
2023/04/30 05:53:20;;;;;;;23.48;18.90;;;;;;;9.78;63.05;100522.25;10499499;28;20051;-63
2023/04/30 05:58:22;;;;;;;24.33;16.90;;;;;;;10.04;62.67;100521.84;10517174;28;20397;-63
2023/04/30 06:03:24;;;;;;;20.08;15.82;;;;;;;10.24;62.24;100529.56;10499460;28;20040;-63
2023/04/30 06:08:25;;;;;;;23.05;16.73;;;;;;;10.31;62.22;100524.91;10517000;28;20052;-63
2023/04/30 06:13:27;;;;;;;19.80;16.00;;;;;;;10.29;61.91;100529.34;10516887;28;20509;-63
2023/04/30 06:18:29;;;;;;;18.88;15.57;;;;;;;10.41;61.51;100518.28;10517839;28;20082;-63
2023/04/30 06:23:31;;;;;;;18.40;15.88;;;;;;;10.48;61.06;100517.06;10507296;28;20135;-63
2023/04/30 06:28:33;;;;;;;17.60;13.52;;;;;;;10.53;59.55;100520.28;10507319;28;20375;-63
2023/04/30 06:33:34;;;;;;;17.38;14.23;;;;;;;10.34;59.96;100522.97;10507133;28;20210;-63
2023/04/30 06:38:36;;;;;;;17.67;13.95;;;;;;;10.44;60.04;100520.72;10524958;28;20083;-64
2023/04/30 06:43:38;;;;;;;18.60;13.50;;;;;;;10.55;59.80;100514.97;10524774;28;20051;-64
2023/04/30 06:48:40;;;;;;;16.00;12.35;;;;;;;10.56;58.97;100512.31;10524491;28;20058;-64
2023/04/30 06:53:42;;;;;;;17.35;13.60;;;;;;;10.64;59.33;100527.59;10504447;28;20403;-63
2023/04/30 06:58:44;;;;;;;15.43;12.40;;;;;;;10.52;58.51;100519.44;10523842;28;20423;-63
2023/04/30 07:03:45;;;;;;;16.20;12.45;;;;;;;10.56;58.50;100519.28;10523922;28;20623;-63
2023/04/30 07:08:48;;;;;;;15.85;12.10;;;;;;;10.86;58.44;100522.97;10523970;28;20101;-63
2023/04/30 07:13:50;;;;;;;15.40;11.95;;;;;;;11.15;57.91;100510.06;10505303;28;20423;-63
2023/04/30 07:18:52;;;;;;;15.35;11.63;;;;;;;11.30;56.66;100505.78;10523251;28;20502;-63
2023/04/30 07:23:53;;;;;;;16.77;10.93;;;;;;;11.24;57.02;100504.34;10523279;28;20080;-63
2023/04/30 07:28:55;;;;;;;13.93;11.18;;;;;;;11.59;56.71;100501.59;10523092;28;20135;-63
2023/04/30 07:33:57;;;;;;;14.68;11.25;;;;;;;12.46;54.98;100501.00;10522988;28;20054;-65
2023/04/30 07:38:59;;;;;;;14.98;10.60;;;;;;;13.65;53.38;100498.91;10522427;28;20434;-62
2023/04/30 07:44:02;;;;;;;13.60;9.40;;;;;;;14.81;50.57;100488.56;10522320;28;20431;-62
2023/04/30 07:49:03;;;;;;;12.65;9.60;;;;;;;15.29;48.05;100485.16;10522513;28;20052;-62
2023/04/30 07:54:05;;;;;;;11.32;9.05;;;;;;;15.61;47.54;100487.31;10522633;28;20123;-62
2023/04/30 07:59:07;;;;;;;12.13;8.57;;;;;;;16.22;46.22;100482.72;10521650;28;20170;-62
2023/04/30 08:04:09;;;;;;;12.85;8.85;;;;;;;17.01;44.69;100484.66;10522025;28;20130;-65
2023/04/30 08:09:11;;;;;;;11.75;8.57;;;;;;;17.35;43.43;100467.00;10522467;28;20050;-62
2023/04/30 08:14:13;;;;;;;11.32;8.05;;;;;;;17.17;43.29;100471.91;10521688;28;20131;-62
2023/04/30 08:19:14;;;;;;;11.40;7.85;;;;;;;17.08;43.73;100479.72;10503496;28;20052;-62
2023/04/30 08:24:16;;;;;;;12.20;7.93;;;;;;;17.82;41.97;100479.91;10521225;28;20079;-62
2023/04/30 08:29:18;;;;;;;9.82;7.05;;;;;;;18.19;41.41;100478.63;10520699;28;20173;-62
2023/04/30 08:34:20;;;;;;;16.67;7.30;;;;;;;18.20;40.12;100468.88;10520739;28;20048;-63
2023/04/30 08:39:22;;;;;;;8.45;6.50;;;;;;;18.18;40.94;100462.84;10520095;28;20219;-63
2023/04/30 08:44:26;;;;;;;10.05;6.32;;;;;;;18.59;39.76;100461.06;10519557;28;20054;-63
2023/04/30 08:49:31;;;;;;;9.88;5.50;;;;;;;18.80;38.98;100450.47;10519946;28;20048;-63
2023/04/30 08:54:35;;;;;;;7.50;4.32;;;;;;;18.69;37.77;100458.47;10501493;28;20048;-64
2023/04/30 08:59:36;;;;;;;5.82;3.78;;;;;;;18.79;37.63;100456.72;10518953;28;20050;-64
2023/04/30 09:04:38;;;;;;;6.35;4.10;;;;;;;18.27;37.29;100467.38;10519481;28;20044;-63
2023/04/30 09:09:40;;;;;;;7.90;3.78;;;;;;;18.61;37.90;100463.59;10519531;28;20324;-64
2023/04/30 09:15:01;;;;;;;5.45;3.47;;;;;;;18.62;36.95;100452.88;10519087;28;20492;-63
2023/04/30 09:20:22;;;;;;;4.20;2.72;;;;;;;18.06;34.30;100450.59;10518931;28;20089;-63
2023/04/30 09:25:37;;;;;;;4.93;2.75;;;;;;;18.70;35.05;100438.97;10500518;28;20509;-63
2023/04/30 09:30:40;;;;;;;4.70;2.50;;;;;;;18.81;36.68;100436.22;10517904;28;20121;-63
2023/04/30 09:35:42;;;;;;;3.58;2.10;;;;;;;19.02;35.45;100438.88;10518209;28;20146;-63
2023/04/30 09:40:44;;;;;;;4.53;2.35;;;;;;;18.75;34.55;100427.97;10518217;28;20048;-63
2023/04/30 09:45:50;;;;;;;5.15;2.50;;;;;;;18.52;36.04;100424.66;10517610;28;20040;-63
2023/04/30 09:50:52;;;;;;;4.63;2.17;;;;;;;18.72;35.16;100421.13;10517619;28;20051;-63
2023/04/30 09:55:57;;;;;;;3.38;1.83;;;;;;;19.15;35.21;100412.97;10516877;28;20342;-65
2023/04/30 10:01:01;;;;;;;3.20;1.80;;;;;;;18.88;34.78;100412.69;10517182;28;20139;-63
2023/04/30 10:06:03;;;;;;;4.45;1.73;;;;;;;18.17;34.41;100413.50;10518068;28;20058;-63
2023/04/30 10:11:07;;;;;;;3.78;1.88;;;;;;;18.51;34.56;100410.56;10516996;28;20048;-63
2023/04/30 10:16:50;;;;;;;5.25;1.80;;;;;;;18.94;33.91;100402.41;10517174;28;20416;-63
2023/04/30 10:21:55;;;;;;;3.20;1.52;;;;;;;18.60;34.90;100406.28;10516941;28;20082;-63
2023/04/30 10:26:57;;;;;;;3.03;1.55;;;;;;;18.48;34.44;100402.03;10517522;28;20450;-63
2023/04/30 10:32:00;;;;;;;2.97;1.38;;;;;;;18.21;32.96;100393.75;10516717;28;20044;-64
2023/04/30 10:37:26;;;;;;;2.50;1.40;;;;;;;18.71;31.11;100370.94;10516291;28;20140;-63
2023/04/30 10:42:28;;;;;;;2.90;1.23;;;;;;;18.40;33.44;100375.38;10516453;28;20052;-63
2023/04/30 10:47:30;;;;;;;1.80;1.10;;;;;;;17.85;32.59;100369.34;10498259;28;20135;-63
2023/04/30 10:52:32;;;;;;;3.95;1.20;;;;;;;17.75;33.91;100373.72;10516679;28;20040;-63
2023/04/30 10:57:42;;;;;;;1.98;1.05;;;;;;;17.61;33.55;100362.59;10516213;28;20134;-63
2023/04/30 11:02:47;;;;;;;2.15;1.08;;;;;;;17.54;34.74;100357.00;10515925;28;20116;-63
2023/04/30 11:07:50;;;;;;;1.67;0.90;;;;;;;17.85;34.37;100358.78;10522736;28;20048;-63
2023/04/30 11:12:54;;;;;;;2.30;0.82;;;;;;;17.43;32.45;100364.09;10523657;28;20040;-63
2023/04/30 11:17:58;;;;;;;1.38;0.70;;;;;;;17.37;33.41;100354.88;10523580;28;20453;-63
2023/04/30 11:23:16;;;;;;;1.27;1.10;;;;;;;17.36;33.88;100340.00;10523274;28;20097;-63
2023/04/30 11:28:48;;;;;;;1.10;0.82;;;;;;;17.68;34.20;100335.53;10523108;28;20048;-63
2023/04/30 11:33:54;;;;;;;1.83;1.00;;;;;;;17.90;35.18;100331.94;10522326;28;20048;-63
2023/04/30 11:38:56;;;;;;;1.52;0.88;;;;;;;17.65;34.10;100327.84;10522545;28;20075;-63
2023/04/30 11:43:58;;;;;;;1.00;0.90;;;;;;;17.85;33.22;100316.44;10522741;28;20051;-63
2023/04/30 11:49:00;;;;;;;0.88;0.88;;;;;;;17.90;32.98;100318.72;10522393;28;20046;-63
2023/04/30 11:54:01;;;;;;;0.95;0.82;;;;;;;17.82;32.49;100313.22;10522272;28;20288;-63
2023/04/30 11:59:09;;;;;;;1.83;0.90;;;;;;;17.61;32.04;100301.75;10521671;28;20052;-63
2023/04/30 12:04:12;;;;;;;1.23;1.02;;;;;;;17.49;32.58;100305.44;10503699;28;20056;-63
2023/04/30 12:09:14;;;;;;;1.10;0.80;;;;;;;17.81;34.19;100304.44;10503541;28;20075;-63
2023/04/30 12:14:16;;;;;;;2.60;1.40;;;;;;;17.93;33.03;100299.09;10521498;28;20040;-63
2023/04/30 12:19:21;;;;;;;2.13;1.20;;;;;;;17.78;33.93;100298.56;10501370;28;20393;-63
2023/04/30 12:24:26;;;;;;;3.15;1.17;;;;;;;18.09;34.75;100291.53;10521160;28;20136;-63
2023/04/30 12:29:28;;;;;;;2.38;1.30;;;;;;;18.26;34.00;100296.28;10520618;28;20496;-63
2023/04/30 12:34:31;;;;;;;2.95;1.13;;;;;;;18.21;34.48;100279.91;10520870;28;20047;-63
2023/04/30 12:39:35;;;;;;;4.38;2.20;;;;;;;18.07;34.02;100296.97;10520207;28;20064;-63
2023/04/30 12:44:43;;;;;;;1.60;0.93;;;;;;;18.14;32.13;100295.44;10520213;28;20062;-63
2023/04/30 12:49:45;;;;;;;1.33;1.02;;;;;;;18.27;32.05;100282.88;10519971;28;20130;-63
2023/04/30 12:54:47;;;;;;;1.25;0.98;;;;;;;18.21;32.27;100272.81;10519780;28;20463;-64
2023/04/30 12:59:52;;;;;;;2.13;1.10;;;;;;;18.24;32.57;100274.38;10519350;28;20522;-63
2023/04/30 13:04:55;;;;;;;1.58;1.00;;;;;;;18.52;33.05;100258.59;10501417;28;20040;-63
2023/04/30 13:09:57;;;;;;;2.05;1.00;;;;;;;18.66;31.38;100260.03;10519027;28;20105;-64
2023/04/30 13:14:59;;;;;;;5.13;1.10;;;;;;;18.76;33.13;100252.13;10519268;28;20151;-64
2023/04/30 13:20:01;;;;;;;1.20;0.98;;;;;;;18.78;32.99;100237.75;10518083;28;20422;-63
2023/04/30 13:25:03;;;;;;;1.00;0.90;;;;;;;18.93;32.55;100238.22;10518661;28;20048;-64
2023/04/30 13:30:05;;;;;;;3.45;1.00;;;;;;;18.80;33.76;100235.81;10500081;28;20146;-64
2023/04/30 13:35:07;;;;;;;1.98;1.00;;;;;;;18.87;32.49;100226.31;10518201;28;20306;-64
2023/04/30 13:40:10;;;;;;;1.33;1.00;;;;;;;18.99;32.43;100222.56;10518110;28;20044;-64
2023/04/30 13:45:12;;;;;;;0.88;0.88;;;;;;;18.78;31.35;100221.00;10517920;28;20044;-64
2023/04/30 13:50:13;;;;;;;2.65;1.10;;;;;;;18.99;32.67;100208.50;10517767;28;20543;-64
2023/04/30 13:55:15;;;;;;;2.10;1.10;;;;;;;19.41;31.55;100208.13;10517635;28;20056;-64
2023/04/30 14:00:18;;;;;;;1.98;1.00;;;;;;;19.22;31.50;100202.81;10517385;28;20688;-65
2023/04/30 14:05:20;;;;;;;4.53;1.25;;;;;;;18.97;31.89;100190.06;10517374;28;20135;-64
2023/04/30 14:10:22;;;;;;;2.22;1.20;;;;;;;18.95;31.96;100189.38;10517462;28;20047;-64
2023/04/30 14:15:24;;;;;;;3.83;1.00;;;;;;;19.11;31.57;100181.75;10517572;28;20052;-64
2023/04/30 14:20:26;;;;;;;1.98;1.00;;;;;;;19.35;31.42;100183.97;10516854;28;20131;-64
2023/04/30 14:25:28;;;;;;;2.53;1.30;;;;;;;19.56;32.23;100175.84;10516832;28;20085;-63
2023/04/30 14:30:30;;;;;;;2.03;1.10;;;;;;;19.35;32.15;100173.34;10517138;28;20050;-63
2023/04/30 14:35:32;;;;;;;1.17;1.00;;;;;;;19.27;32.89;100178.53;10498885;28;20040;-63
2023/04/30 14:40:34;;;;;;;1.85;1.10;;;;;;;18.94;31.06;100163.00;10519854;28;20044;-63
2023/04/30 14:45:36;;;;;;;1.55;1.05;;;;;;;19.07;32.47;100156.50;10524814;28;20082;-63
2023/04/30 14:50:38;;;;;;;1.58;0.90;;;;;;;19.31;33.04;100156.91;10524612;28;20050;-63
2023/04/30 14:55:40;;;;;;;4.05;1.05;;;;;;;19.48;31.31;100149.19;10524206;28;20393;-63
2023/04/30 15:00:42;;;;;;;1.77;1.00;;;;;;;19.48;31.82;100138.56;10524003;28;20526;-63
2023/04/30 15:05:44;;;;;;;1.40;0.93;;;;;;;19.16;31.29;100141.53;10524241;28;20101;-64
2023/04/30 15:10:45;;;;;;;2.20;1.08;;;;;;;18.65;32.99;100141.78;10523379;28;20093;-64
2023/04/30 15:15:48;;;;;;;1.92;1.10;;;;;;;18.76;32.58;100131.06;10523647;28;20044;-64
2023/04/30 15:20:50;;;;;;;1.90;1.00;;;;;;;18.90;32.30;100120.06;10505279;28;20510;-64
2023/04/30 15:25:52;;;;;;;2.65;1.10;;;;;;;18.80;31.57;100121.03;10523343;28;20054;-64
2023/04/30 15:30:54;;;;;;;1.05;0.90;;;;;;;19.01;31.92;100127.84;10522962;28;20659;-64
2023/04/30 15:35:56;;;;;;;2.72;1.00;;;;;;;18.60;31.30;100118.38;10521349;28;20048;-63
2023/04/30 15:40:58;;;;;;;3.42;1.00;;;;;;;18.89;32.66;100107.75;10522400;28;20052;-64
2023/04/30 15:46:00;;;;;;;2.28;1.00;;;;;;;19.21;31.60;100104.84;10522680;28;20044;-64
2023/04/30 15:51:02;;;;;;;2.20;1.13;;;;;;;19.27;32.57;100091.88;10536544;28;20138;-63
2023/04/30 15:56:04;;;;;;;3.97;1.45;;;;;;;19.33;31.63;100099.25;10521923;28;20044;-63
2023/04/30 16:01:06;;;;;;;3.40;1.25;;;;;;;19.08;32.58;100102.50;10521499;28;20142;-63
2023/04/30 16:06:08;;;;;;;2.10;1.10;;;;;;;18.62;32.27;100095.25;10521970;28;20055;-64
2023/04/30 16:11:10;;;;;;;3.17;1.20;;;;;;;18.51;32.20;100100.66;10521426;28;20044;-63
2023/04/30 16:16:13;;;;;;;1.95;1.08;;;;;;;18.37;32.41;100101.06;10521012;28;20143;-63
2023/04/30 16:21:15;;;;;;;2.40;1.00;;;;;;;18.27;32.56;100097.56;10521137;28;20040;-63
2023/04/30 16:26:17;;;;;;;1.38;1.00;;;;;;;18.36;33.75;100090.59;10520920;28;20508;-64
2023/04/30 16:31:21;;;;;;;2.90;1.20;;;;;;;18.53;34.02;100085.47;10520835;28;20140;-63
2023/04/30 16:36:23;;;;;;;3.22;1.23;;;;;;;18.61;33.55;100082.09;10520465;28;20056;-64
2023/04/30 16:41:25;;;;;;;1.77;1.10;;;;;;;18.74;32.65;100082.69;10519987;28;20131;-62
2023/04/30 16:46:29;;;;;;;1.65;1.20;;;;;;;18.78;32.02;100068.19;10520074;28;20048;-63
2023/04/30 16:51:31;;;;;;;1.80;1.10;;;;;;;18.80;31.98;100057.44;10520504;28;20040;-62
2023/04/30 16:56:33;;;;;;;2.42;1.20;;;;;;;18.67;33.01;100060.34;10519590;28;20163;-62
2023/04/30 17:01:35;;;;;;;3.80;1.30;;;;;;;18.77;32.88;100058.53;10519479;28;20109;-63
2023/04/30 17:06:37;;;;;;;3.95;1.30;;;;;;;18.71;32.76;100061.75;10501165;28;20044;-62
2023/04/30 17:11:40;;;;;;;2.35;1.27;;;;;;;18.39;32.45;100061.19;10519079;28;20408;-63
2023/04/30 17:16:43;;;;;;;4.05;1.17;;;;;;;18.13;33.22;100052.06;10519233;28;20304;-63
2023/04/30 17:21:45;;;;;;;2.63;1.20;;;;;;;18.10;33.57;100054.97;10518385;28;20138;-62
2023/04/30 17:26:47;;;;;;;2.97;1.27;;;;;;;17.99;33.27;100048.00;10534436;28;20078;-62
2023/04/30 17:31:49;;;;;;;2.90;1.23;;;;;;;17.75;33.69;100052.81;10483317;28;20083;-62
2023/04/30 17:36:51;;;;;;;2.60;1.27;;;;;;;17.66;34.06;100057.09;10517683;28;20048;-62
2023/04/30 17:41:53;;;;;;;3.53;1.40;;;;;;;17.79;34.77;100049.75;10499559;28;20327;-62
2023/04/30 17:46:56;;;;;;;2.15;1.17;;;;;;;17.65;34.43;100049.28;10518419;28;20525;-63
2023/04/30 17:51:59;;;;;;;4.72;1.40;;;;;;;17.69;34.47;100040.94;10499785;28;20125;-63
2023/04/30 17:57:01;;;;;;;3.17;1.40;;;;;;;17.55;34.67;100041.31;10517509;28;20726;-63
2023/04/30 18:02:04;;;;;;;4.00;1.30;;;;;;;17.27;35.08;100043.78;10518167;28;20138;-63
2023/04/30 18:07:07;;;;;;;3.03;1.50;;;;;;;17.18;35.51;100036.66;10517403;28;20044;-63
2023/04/30 18:12:08;;;;;;;2.53;1.40;;;;;;;17.06;36.90;100041.16;10517038;28;20047;-63
2023/04/30 18:17:10;;;;;;;4.22;1.67;;;;;;;16.76;36.60;100041.94;10481061;28;20283;-63
2023/04/30 18:22:12;;;;;;;2.95;1.30;;;;;;;16.61;36.82;100035.28;10516910;28;20044;-63
2023/04/30 18:27:14;;;;;;;6.32;1.60;;;;;;;16.41;36.67;100028.13;10516865;28;20048;-63
2023/04/30 18:32:16;;;;;;;5.68;1.50;;;;;;;16.19;37.20;100033.50;10516787;28;20050;-63
2023/04/30 18:37:19;;;;;;;3.22;1.40;;;;;;;16.05;37.66;100032.00;10516862;28;20063;-63
2023/04/30 18:42:23;;;;;;;3.00;1.40;;;;;;;15.84;38.79;100038.97;10516453;28;20457;-63
2023/04/30 18:47:25;;;;;;;4.55;1.60;;;;;;;15.75;39.43;100037.09;10517142;28;20047;-63
2023/04/30 18:52:27;;;;;;;4.38;1.67;;;;;;;15.51;38.69;100040.81;10516740;28;20085;-63
2023/04/30 18:57:32;;;;;;;4.05;1.58;;;;;;;15.36;38.84;100038.38;10516074;28;20131;-63
2023/04/30 19:02:34;;;;;;;2.90;1.50;;;;;;;15.32;39.68;100046.63;10498040;28;20044;-63
2023/04/30 19:07:36;;;;;;;3.65;1.60;;;;;;;15.22;40.51;100057.06;10516238;28;20134;-63
2023/04/30 19:12:39;;;;;;;3.67;1.73;;;;;;;15.12;41.13;100060.50;10515567;28;20525;-63
2023/04/30 19:17:41;;;;;;;5.80;1.90;;;;;;;14.94;41.75;100060.09;10516069;28;20044;-63
2023/04/30 19:22:43;;;;;;;5.05;1.73;;;;;;;14.78;43.04;100071.91;10515425;28;20044;-63
2023/04/30 19:27:45;;;;;;;3.72;1.73;;;;;;;14.60;43.21;100068.84;10520227;28;20056;-63
2023/04/30 19:32:47;;;;;;;5.82;1.80;;;;;;;14.49;43.68;100082.78;10523779;28;20044;-63
2023/04/30 19:37:49;;;;;;;5.47;1.75;;;;;;;14.39;44.56;100088.81;10522494;28;20385;-63
2023/04/30 19:42:52;;;;;;;3.58;1.67;;;;;;;14.28;44.58;100099.28;10504526;28;20392;-63
2023/04/30 19:47:55;;;;;;;4.20;1.70;;;;;;;14.15;45.07;100098.47;10522687;28;20048;-63
2023/04/30 19:52:57;;;;;;;6.45;1.75;;;;;;;14.05;45.26;100095.66;10522399;28;20083;-63
2023/04/30 19:57:59;;;;;;;4.25;1.50;;;;;;;13.95;45.75;100099.03;10522029;28;20083;-63
2023/04/30 20:03:03;;;;;;;5.18;1.95;;;;;;;13.78;45.78;100100.22;10486818;28;20047;-63
2023/04/30 20:08:07;;;;;;;5.47;1.80;;;;;;;13.60;46.24;100096.25;10521789;28;20399;-63
2023/04/30 20:13:08;;;;;;;5.72;2.50;;;;;;;13.49;46.81;100106.69;10503195;28;20044;-63
2023/04/30 20:18:11;;;;;;;5.45;2.40;;;;;;;13.40;47.02;100105.50;10536917;28;20040;-63
2023/04/30 20:23:15;;;;;;;4.55;2.10;;;;;;;13.22;47.29;100105.91;10521006;28;20531;-63
2023/04/30 20:28:17;;;;;;;7.15;2.70;;;;;;;13.21;47.69;100101.63;10502646;28;20372;-63
2023/04/30 20:33:19;;;;;;;5.07;2.15;;;;;;;13.03;47.36;100094.97;10520621;28;20416;-63
2023/04/30 20:38:21;;;;;;;5.32;2.13;;;;;;;13.02;47.53;100099.38;10519973;28;20048;-63
2023/04/30 20:43:23;;;;;;;5.47;2.00;;;;;;;12.95;47.23;100104.19;10520403;28;20525;-63
2023/04/30 20:48:25;;;;;;;5.72;2.28;;;;;;;12.82;48.28;100099.88;10520011;28;20052;-63
2023/04/30 20:53:27;;;;;;;6.60;2.20;;;;;;;12.75;48.32;100103.84;10520167;28;20047;-63
2023/04/30 20:58:29;;;;;;;5.15;2.30;;;;;;;12.66;48.17;100105.28;10501518;28;20087;-63
2023/04/30 21:03:31;;;;;;;5.53;2.33;;;;;;;12.62;48.38;100106.41;10519324;28;20410;-63
2023/04/30 21:08:33;;;;;;;5.00;2.20;;;;;;;12.61;48.20;100104.75;10519398;28;20051;-63
2023/04/30 21:13:34;;;;;;;8.35;2.63;;;;;;;12.59;48.75;100101.38;10501286;28;20055;-63
2023/04/30 21:18:36;;;;;;;10.60;3.05;;;;;;;12.56;48.71;100106.81;10519033;28;20521;-62
2023/04/30 21:23:38;;;;;;;5.07;2.40;;;;;;;12.57;48.71;100099.78;10518684;28;20043;-62
2023/04/30 21:28:40;;;;;;;5.40;2.65;;;;;;;12.51;48.95;100093.16;10500831;28;20051;-62
2023/04/30 21:33:44;;;;;;;3.88;2.30;;;;;;;12.44;49.29;100101.50;10517936;28;20151;-62
2023/04/30 21:38:46;;;;;;;6.60;2.72;;;;;;;12.39;49.13;100093.13;10517927;28;20083;-62
2023/04/30 21:43:48;;;;;;;8.38;2.80;;;;;;;12.36;49.71;100099.41;10517991;28;20076;-62
2023/04/30 21:48:50;;;;;;;4.80;2.75;;;;;;;12.31;49.44;100092.78;10499770;28;20138;-62
2023/04/30 21:53:52;;;;;;;6.13;2.75;;;;;;;12.25;49.05;100093.13;10517679;28;20488;-62
2023/04/30 21:58:54;;;;;;;5.30;2.72;;;;;;;12.12;49.42;100090.44;10517422;28;20042;-64
2023/04/30 22:03:56;;;;;;;7.88;3.00;;;;;;;12.12;49.86;100090.44;10517786;28;20127;-62
2023/04/30 22:08:57;;;;;;;10.60;2.80;;;;;;;11.99;50.14;100084.28;10517483;28;20044;-62
2023/04/30 22:14:00;;;;;;;6.97;3.10;;;;;;;11.85;50.08;100089.53;10517261;28;20472;-62
2023/04/30 22:19:01;;;;;;;7.10;3.17;;;;;;;11.77;49.82;100078.72;10498998;28;20071;-62
2023/04/30 22:24:04;;;;;;;6.72;3.35;;;;;;;11.60;51.25;100086.78;10516911;28;20522;-62
2023/04/30 22:29:06;;;;;;;7.05;3.47;;;;;;;11.47;50.88;100089.31;10517566;28;20075;-62
2023/04/30 22:34:08;;;;;;;5.88;2.95;;;;;;;11.30;50.87;100087.69;10516667;28;20499;-62
2023/04/30 22:39:10;;;;;;;6.65;3.15;;;;;;;11.21;50.89;100085.63;10516425;28;20075;-62
2023/04/30 22:44:13;;;;;;;4.90;2.88;;;;;;;11.17;51.02;100075.44;10517045;28;20060;-62
2023/04/30 22:49:15;;;;;;;6.85;3.28;;;;;;;11.06;51.25;100081.31;10517409;28;20329;-62
2023/04/30 22:54:32;;;;;;;8.63;3.17;;;;;;;11.00;51.33;100081.66;10516519;28;20040;-62
2023/04/30 22:59:34;;;;;;;6.40;2.83;;;;;;;11.00;51.56;100078.19;10498627;28;20044;-62
2023/04/30 23:04:36;;;;;;;8.60;3.85;;;;;;;11.02;51.63;100081.56;10524555;28;20103;-62